sensor_id;sensor_type;location;lat;lon;timestamp;temperature;humidity
6252;DHT22;3159;52.414;9.784;2023-04-01T00:01:41;11.00;99.90
6252;DHT22;3159;52.414;9.784;2023-04-01T00:04:08;11.20;99.90
6252;DHT22;3159;52.414;9.784;2023-04-01T00:06:35;11.20;99.90
6252;DHT22;3159;52.414;9.784;2023-04-01T00:09:02;11.20;99.90
6252;DHT22;3159;52.414;9.784;2023-04-01T00:11:29;11.20;99.90
6252;DHT22;3159;52.414;9.784;2023-04-01T00:13:56;11.10;99.90
6252;DHT22;3159;52.414;9.784;2023-04-01T00:16:22;11.00;99.90
6252;DHT22;3159;52.414;9.784;2023-04-01T00:18:51;11.10;99.90
6252;DHT22;3159;52.414;9.784;2023-04-01T00:21:19;11.00;99.90
6252;DHT22;3159;52.414;9.784;2023-04-01T00:23:47;11.00;99.90
6252;DHT22;3159;52.414;9.784;2023-04-01T00:26:14;11.00;99.90
6252;DHT22;3159;52.414;9.784;2023-04-01T00:28:44;10.90;99.90
6252;DHT22;3159;52.414;9.784;2023-04-01T00:31:12;10.90;99.90
6252;DHT22;3159;52.414;9.784;2023-04-01T00:33:39;11.00;99.90
6252;DHT22;3159;52.414;9.784;2023-04-01T00:36:09;10.90;99.90
6252;DHT22;3159;52.414;9.784;2023-04-01T00:38:37;10.90;99.90
6252;DHT22;3159;52.414;9.784;2023-04-01T00:41:05;10.80;99.90
6252;DHT22;3159;52.414;9.784;2023-04-01T00:43:32;10.80;99.90
6252;DHT22;3159;52.414;9.784;2023-04-01T00:45:59;10.70;99.90
6252;DHT22;3159;52.414;9.784;2023-04-01T00:48:27;10.70;99.90
6252;DHT22;3159;52.414;9.784;2023-04-01T00:51:01;10.80;99.90
6252;DHT22;3159;52.414;9.784;2023-04-01T00:53:31;10.80;99.90
6252;DHT22;3159;52.414;9.784;2023-04-01T00:56:02;10.70;99.90
6252;DHT22;3159;52.414;9.784;2023-04-01T00:58:34;10.60;99.90
6252;DHT22;3159;52.414;9.784;2023-04-01T01:01:02;10.70;99.90
6252;DHT22;3159;52.414;9.784;2023-04-01T01:03:29;10.70;99.90
6252;DHT22;3159;52.414;9.784;2023-04-01T01:06:24;10.80;99.90
6252;DHT22;3159;52.414;9.784;2023-04-01T01:09:04;10.80;99.90
6252;DHT22;3159;52.414;9.784;2023-04-01T01:11:37;10.90;99.90
6252;DHT22;3159;52.414;9.784;2023-04-01T01:14:12;10.70;99.90
6252;DHT22;3159;52.414;9.784;2023-04-01T01:16:44;10.70;99.90
6252;DHT22;3159;52.414;9.784;2023-04-01T01:19:28;10.80;99.90
6252;DHT22;3159;52.414;9.784;2023-04-01T01:22:14;10.80;99.90
6252;DHT22;3159;52.414;9.784;2023-04-01T01:24:54;10.90;99.90
6252;DHT22;3159;52.414;9.784;2023-04-01T01:27:25;10.70;99.90
6252;DHT22;3159;52.414;9.784;2023-04-01T01:30:14;10.70;99.90
6252;DHT22;3159;52.414;9.784;2023-04-01T01:33:18;10.80;99.90
6252;DHT22;3159;52.414;9.784;2023-04-01T01:35:53;10.80;99.90
6252;DHT22;3159;52.414;9.784;2023-04-01T01:38:23;10.90;99.90
6252;DHT22;3159;52.414;9.784;2023-04-01T01:40:51;10.90;99.90
6252;DHT22;3159;52.414;9.784;2023-04-01T01:43:22;10.90;99.90
6252;DHT22;3159;52.414;9.784;2023-04-01T01:45:53;10.90;99.90
6252;DHT22;3159;52.414;9.784;2023-04-01T01:48:21;10.90;99.90
6252;DHT22;3159;52.414;9.784;2023-04-01T01:50:50;10.90;99.90
6252;DHT22;3159;52.414;9.784;2023-04-01T01:53:17;10.90;99.90
6252;DHT22;3159;52.414;9.784;2023-04-01T01:55:45;10.80;99.90
6252;DHT22;3159;52.414;9.784;2023-04-01T01:58:16;10.90;99.90
6252;DHT22;3159;52.414;9.784;2023-04-01T02:00:48;10.90;99.90
6252;DHT22;3159;52.414;9.784;2023-04-01T02:03:17;10.90;99.90
6252;DHT22;3159;52.414;9.784;2023-04-01T02:05:47;10.90;99.90
6252;DHT22;3159;52.414;9.784;2023-04-01T02:08:21;11.00;99.90
6252;DHT22;3159;52.414;9.784;2023-04-01T02:10:55;11.00;99.90
6252;DHT22;3159;52.414;9.784;2023-04-01T02:13:26;11.10;99.90
6252;DHT22;3159;52.414;9.784;2023-04-01T02:15:56;11.00;99.90
6252;DHT22;3159;52.414;9.784;2023-04-01T02:18:25;10.90;99.90
6252;DHT22;3159;52.414;9.784;2023-04-01T02:20:52;10.90;99.90
6252;DHT22;3159;52.414;9.784;2023-04-01T02:23:22;10.90;99.90
6252;DHT22;3159;52.414;9.784;2023-04-01T02:25:49;11.00;99.90
6252;DHT22;3159;52.414;9.784;2023-04-01T02:28:17;10.90;99.90
6252;DHT22;3159;52.414;9.784;2023-04-01T02:30:47;10.90;99.90
6252;DHT22;3159;52.414;9.784;2023-04-01T02:33:16;10.90;99.90
6252;DHT22;3159;52.414;9.784;2023-04-01T02:35:43;10.80;99.90
6252;DHT22;3159;52.414;9.784;2023-04-01T02:38:10;10.80;99.90
6252;DHT22;3159;52.414;9.784;2023-04-01T02:40:47;10.80;99.90
6252;DHT22;3159;52.414;9.784;2023-04-01T02:43:14;10.70;99.90
6252;DHT22;3159;52.414;9.784;2023-04-01T02:45:41;10.70;99.90
6252;DHT22;3159;52.414;9.784;2023-04-01T02:48:08;10.80;99.90
6252;DHT22;3159;52.414;9.784;2023-04-01T02:50:35;10.70;99.90
6252;DHT22;3159;52.414;9.784;2023-04-01T02:53:02;10.80;99.90
6252;DHT22;3159;52.414;9.784;2023-04-01T02:55:31;10.80;99.90
6252;DHT22;3159;52.414;9.784;2023-04-01T02:57:59;10.90;99.90
6252;DHT22;3159;52.414;9.784;2023-04-01T03:00:26;10.80;99.90
6252;DHT22;3159;52.414;9.784;2023-04-01T03:02:53;10.80;99.90
6252;DHT22;3159;52.414;9.784;2023-04-01T03:05:20;10.90;99.90
6252;DHT22;3159;52.414;9.784;2023-04-01T03:07:47;10.80;99.90
6252;DHT22;3159;52.414;9.784;2023-04-01T03:10:14;10.90;99.90
6252;DHT22;3159;52.414;9.784;2023-04-01T03:12:41;10.80;99.90
6252;DHT22;3159;52.414;9.784;2023-04-01T03:15:11;10.90;99.90
6252;DHT22;3159;52.414;9.784;2023-04-01T03:17:39;10.90;99.90
6252;DHT22;3159;52.414;9.784;2023-04-01T03:20:07;10.90;99.90
6252;DHT22;3159;52.414;9.784;2023-04-01T03:22:34;10.90;99.90
6252;DHT22;3159;52.414;9.784;2023-04-01T03:25:01;10.80;99.90
6252;DHT22;3159;52.414;9.784;2023-04-01T03:27:28;10.80;99.90
6252;DHT22;3159;52.414;9.784;2023-04-01T03:29:54;10.80;99.90
6252;DHT22;3159;52.414;9.784;2023-04-01T03:32:23;10.70;99.90
6252;DHT22;3159;52.414;9.784;2023-04-01T03:34:49;10.80;99.90
6252;DHT22;3159;52.414;9.784;2023-04-01T03:37:16;10.90;99.90
6252;DHT22;3159;52.414;9.784;2023-04-01T03:39:43;10.90;99.90
6252;DHT22;3159;52.414;9.784;2023-04-01T03:42:11;10.90;99.90
6252;DHT22;3159;52.414;9.784;2023-04-01T03:44:37;10.90;99.90
6252;DHT22;3159;52.414;9.784;2023-04-01T03:47:04;10.90;99.90
6252;DHT22;3159;52.414;9.784;2023-04-01T03:49:33;10.90;99.90
6252;DHT22;3159;52.414;9.784;2023-04-01T03:51:59;10.90;99.90
6252;DHT22;3159;52.414;9.784;2023-04-01T03:54:26;11.00;99.90
6252;DHT22;3159;52.414;9.784;2023-04-01T03:56:53;11.00;99.90
6252;DHT22;3159;52.414;9.784;2023-04-01T03:59:20;11.10;99.90
6252;DHT22;3159;52.414;9.784;2023-04-01T04:01:47;11.10;99.90
6252;DHT22;3159;52.414;9.784;2023-04-01T04:04:14;11.00;99.90
6252;DHT22;3159;52.414;9.784;2023-04-01T04:06:42;11.10;99.90
6252;DHT22;3159;52.414;9.784;2023-04-01T04:09:09;11.10;99.90
6252;DHT22;3159;52.414;9.784;2023-04-01T04:11:36;11.00;99.90
6252;DHT22;3159;52.414;9.784;2023-04-01T04:14:03;10.90;99.90
6252;DHT22;3159;52.414;9.784;2023-04-01T04:16:30;10.80;99.90
6252;DHT22;3159;52.414;9.784;2023-04-01T04:18:57;10.90;99.90
6252;DHT22;3159;52.414;9.784;2023-04-01T04:21:23;10.70;99.90
6252;DHT22;3159;52.414;9.784;2023-04-01T04:23:52;10.80;99.90
6252;DHT22;3159;52.414;9.784;2023-04-01T04:26:18;10.90;99.90
6252;DHT22;3159;52.414;9.784;2023-04-01T04:28:45;10.90;99.90
6252;DHT22;3159;52.414;9.784;2023-04-01T04:31:13;10.90;99.90
6252;DHT22;3159;52.414;9.784;2023-04-01T04:33:44;10.90;99.90
6252;DHT22;3159;52.414;9.784;2023-04-01T04:36:11;10.80;99.90
6252;DHT22;3159;52.414;9.784;2023-04-01T04:38:37;10.80;99.90
6252;DHT22;3159;52.414;9.784;2023-04-01T04:41:09;10.70;99.90
6252;DHT22;3159;52.414;9.784;2023-04-01T04:43:37;10.70;99.90
6252;DHT22;3159;52.414;9.784;2023-04-01T04:46:05;10.70;99.90
6252;DHT22;3159;52.414;9.784;2023-04-01T04:48:32;10.80;99.90
6252;DHT22;3159;52.414;9.784;2023-04-01T04:50:59;10.70;99.90
6252;DHT22;3159;52.414;9.784;2023-04-01T04:53:26;10.70;99.90
6252;DHT22;3159;52.414;9.784;2023-04-01T04:55:53;10.70;99.90
6252;DHT22;3159;52.414;9.784;2023-04-01T04:58:21;10.70;99.90
6252;DHT22;3159;52.414;9.784;2023-04-01T05:00:48;10.80;99.90
6252;DHT22;3159;52.414;9.784;2023-04-01T05:03:15;10.70;99.90
6252;DHT22;3159;52.414;9.784;2023-04-01T05:05:48;10.60;99.90
6252;DHT22;3159;52.414;9.784;2023-04-01T05:08:15;10.70;99.90
6252;DHT22;3159;52.414;9.784;2023-04-01T05:10:42;10.70;99.90
6252;DHT22;3159;52.414;9.784;2023-04-01T05:13:10;10.70;99.90
6252;DHT22;3159;52.414;9.784;2023-04-01T05:15:38;10.70;99.90
6252;DHT22;3159;52.414;9.784;2023-04-01T05:18:05;10.70;99.90
6252;DHT22;3159;52.414;9.784;2023-04-01T05:20:32;10.70;99.90
6252;DHT22;3159;52.414;9.784;2023-04-01T05:23:00;10.70;99.90
6252;DHT22;3159;52.414;9.784;2023-04-01T05:25:27;10.60;99.90
6252;DHT22;3159;52.414;9.784;2023-04-01T05:27:53;10.40;99.90
6252;DHT22;3159;52.414;9.784;2023-04-01T05:30:20;10.50;99.90
6252;DHT22;3159;52.414;9.784;2023-04-01T05:32:49;10.50;99.90
6252;DHT22;3159;52.414;9.784;2023-04-01T05:35:16;10.50;99.90
6252;DHT22;3159;52.414;9.784;2023-04-01T05:37:42;10.60;99.90
6252;DHT22;3159;52.414;9.784;2023-04-01T05:40:10;10.60;99.90
6252;DHT22;3159;52.414;9.784;2023-04-01T05:42:37;10.50;99.90
6252;DHT22;3159;52.414;9.784;2023-04-01T05:45:04;10.50;99.90
6252;DHT22;3159;52.414;9.784;2023-04-01T05:47:31;10.50;99.90
6252;DHT22;3159;52.414;9.784;2023-04-01T05:50:00;10.50;99.90
6252;DHT22;3159;52.414;9.784;2023-04-01T05:52:26;10.60;99.90
6252;DHT22;3159;52.414;9.784;2023-04-01T05:54:53;10.70;99.90
6252;DHT22;3159;52.414;9.784;2023-04-01T05:57:20;10.50;99.90
6252;DHT22;3159;52.414;9.784;2023-04-01T05:59:47;10.60;99.90
6252;DHT22;3159;52.414;9.784;2023-04-01T06:02:17;10.60;99.90
6252;DHT22;3159;52.414;9.784;2023-04-01T06:04:44;10.70;99.90
6252;DHT22;3159;52.414;9.784;2023-04-01T06:07:13;10.60;99.90
6252;DHT22;3159;52.414;9.784;2023-04-01T06:09:42;10.60;99.90
6252;DHT22;3159;52.414;9.784;2023-04-01T06:12:31;10.60;99.90
6252;DHT22;3159;52.414;9.784;2023-04-01T06:15:11;10.40;99.90
6252;DHT22;3159;52.414;9.784;2023-04-01T06:17:53;10.50;99.90
6252;DHT22;3159;52.414;9.784;2023-04-01T06:20:34;10.60;99.90
6252;DHT22;3159;52.414;9.784;2023-04-01T06:23:24;10.70;99.90
6252;DHT22;3159;52.414;9.784;2023-04-01T06:26:22;10.70;99.90
6252;DHT22;3159;52.414;9.784;2023-04-01T06:29:18;10.80;99.90
6252;DHT22;3159;52.414;9.784;2023-04-01T06:32:14;10.70;99.90
6252;DHT22;3159;52.414;9.784;2023-04-01T06:34:56;10.80;99.90
6252;DHT22;3159;52.414;9.784;2023-04-01T06:37:41;11.00;99.90
6252;DHT22;3159;52.414;9.784;2023-04-01T06:40:33;11.00;99.90
6252;DHT22;3159;52.414;9.784;2023-04-01T06:43:13;11.00;99.90
6252;DHT22;3159;52.414;9.784;2023-04-01T06:45:48;11.10;99.90
6252;DHT22;3159;52.414;9.784;2023-04-01T06:48:45;11.30;99.90
6252;DHT22;3159;52.414;9.784;2023-04-01T06:51:23;11.10;99.90
6252;DHT22;3159;52.414;9.784;2023-04-01T06:53:56;11.20;99.90
6252;DHT22;3159;52.414;9.784;2023-04-01T06:56:28;11.10;99.90
6252;DHT22;3159;52.414;9.784;2023-04-01T06:58:58;11.10;99.90
6252;DHT22;3159;52.414;9.784;2023-04-01T07:01:29;11.10;99.90
6252;DHT22;3159;52.414;9.784;2023-04-01T07:04:05;11.20;99.90
6252;DHT22;3159;52.414;9.784;2023-04-01T07:06:37;11.30;99.90
6252;DHT22;3159;52.414;9.784;2023-04-01T07:09:09;11.20;99.90
6252;DHT22;3159;52.414;9.784;2023-04-01T07:11:39;11.20;99.90
6252;DHT22;3159;52.414;9.784;2023-04-01T07:14:13;11.20;99.90
6252;DHT22;3159;52.414;9.784;2023-04-01T07:16:45;11.20;99.90
6252;DHT22;3159;52.414;9.784;2023-04-01T07:19:18;11.10;99.90
6252;DHT22;3159;52.414;9.784;2023-04-01T07:21:48;11.10;99.90
6252;DHT22;3159;52.414;9.784;2023-04-01T07:24:21;11.20;99.90
6252;DHT22;3159;52.414;9.784;2023-04-01T07:26:53;11.20;99.90
6252;DHT22;3159;52.414;9.784;2023-04-01T07:29:20;11.20;99.90
6252;DHT22;3159;52.414;9.784;2023-04-01T07:32:09;11.20;99.90
6252;DHT22;3159;52.414;9.784;2023-04-01T07:34:51;11.20;99.90
6252;DHT22;3159;52.414;9.784;2023-04-01T07:37:24;11.30;99.90
6252;DHT22;3159;52.414;9.784;2023-04-01T07:40:00;11.30;99.90
6252;DHT22;3159;52.414;9.784;2023-04-01T07:42:39;11.30;99.90
6252;DHT22;3159;52.414;9.784;2023-04-01T07:45:13;11.20;99.90
6252;DHT22;3159;52.414;9.784;2023-04-01T07:47:53;11.40;99.90
6252;DHT22;3159;52.414;9.784;2023-04-01T07:50:27;11.40;99.90
6252;DHT22;3159;52.414;9.784;2023-04-01T07:53:02;11.30;99.90
6252;DHT22;3159;52.414;9.784;2023-04-01T07:55:36;11.40;99.90
6252;DHT22;3159;52.414;9.784;2023-04-01T07:58:10;11.40;99.90
6252;DHT22;3159;52.414;9.784;2023-04-01T08:00:45;11.40;99.90
6252;DHT22;3159;52.414;9.784;2023-04-01T08:06:16;11.60;99.90
6252;DHT22;3159;52.414;9.784;2023-04-01T08:08:54;11.50;99.90
6252;DHT22;3159;52.414;9.784;2023-04-01T08:11:32;11.60;99.90
6252;DHT22;3159;52.414;9.784;2023-04-01T08:14:09;11.70;99.90
6252;DHT22;3159;52.414;9.784;2023-04-01T08:16:46;11.70;99.90
6252;DHT22;3159;52.414;9.784;2023-04-01T08:19:24;11.80;99.90
6252;DHT22;3159;52.414;9.784;2023-04-01T08:21:52;11.70;99.90
6252;DHT22;3159;52.414;9.784;2023-04-01T08:24:27;11.90;99.90
6252;DHT22;3159;52.414;9.784;2023-04-01T08:26:56;12.10;99.90
6252;DHT22;3159;52.414;9.784;2023-04-01T08:29:33;12.10;99.90
6252;DHT22;3159;52.414;9.784;2023-04-01T08:32:06;12.30;99.90
6252;DHT22;3159;52.414;9.784;2023-04-01T08:34:36;12.40;99.90
6252;DHT22;3159;52.414;9.784;2023-04-01T08:37:08;12.70;99.90
6252;DHT22;3159;52.414;9.784;2023-04-01T08:39:39;13.10;99.90
6252;DHT22;3159;52.414;9.784;2023-04-01T08:42:30;13.10;99.90
6252;DHT22;3159;52.414;9.784;2023-04-01T08:45:18;12.80;99.90
6252;DHT22;3159;52.414;9.784;2023-04-01T08:48:18;13.10;99.90
6252;DHT22;3159;52.414;9.784;2023-04-01T08:51:08;12.70;99.90
6252;DHT22;3159;52.414;9.784;2023-04-01T08:53:52;12.90;99.90
6252;DHT22;3159;52.414;9.784;2023-04-01T08:56:26;12.40;99.90
6252;DHT22;3159;52.414;9.784;2023-04-01T08:59:14;12.60;99.90
6252;DHT22;3159;52.414;9.784;2023-04-01T09:02:22;12.60;99.90
6252;DHT22;3159;52.414;9.784;2023-04-01T09:05:18;12.40;99.90
6252;DHT22;3159;52.414;9.784;2023-04-01T09:07:58;12.50;99.90
6252;DHT22;3159;52.414;9.784;2023-04-01T09:10:40;12.70;99.90
6252;DHT22;3159;52.414;9.784;2023-04-01T09:13:33;12.60;99.90
6252;DHT22;3159;52.414;9.784;2023-04-01T09:16:16;12.80;99.90
6252;DHT22;3159;52.414;9.784;2023-04-01T09:19:11;12.80;99.90
6252;DHT22;3159;52.414;9.784;2023-04-01T09:24:44;12.50;99.90
6252;DHT22;3159;52.414;9.784;2023-04-01T09:27:21;12.50;99.90
6252;DHT22;3159;52.414;9.784;2023-04-01T09:33:09;12.40;99.90
6252;DHT22;3159;52.414;9.784;2023-04-01T09:35:45;12.20;99.90
6252;DHT22;3159;52.414;9.784;2023-04-01T09:38:21;12.10;99.90
6252;DHT22;3159;52.414;9.784;2023-04-01T09:40:54;12.20;99.90
6252;DHT22;3159;52.414;9.784;2023-04-01T09:43:25;12.30;99.90
6252;DHT22;3159;52.414;9.784;2023-04-01T09:46:09;12.20;99.90
6252;DHT22;3159;52.414;9.784;2023-04-01T09:51:48;12.10;99.90
6252;DHT22;3159;52.414;9.784;2023-04-01T09:54:32;12.10;99.90
6252;DHT22;3159;52.414;9.784;2023-04-01T10:00:41;12.10;99.90
6252;DHT22;3159;52.414;9.784;2023-04-01T10:03:39;12.10;99.90
6252;DHT22;3159;52.414;9.784;2023-04-01T10:13:09;12.20;99.90
6252;DHT22;3159;52.414;9.784;2023-04-01T10:16:12;12.10;99.90
6252;DHT22;3159;52.414;9.784;2023-04-01T10:19:03;12.00;99.90
6252;DHT22;3159;52.414;9.784;2023-04-01T10:22:00;12.10;99.90
6252;DHT22;3159;52.414;9.784;2023-04-01T10:24:58;12.00;99.90
6252;DHT22;3159;52.414;9.784;2023-04-01T10:36:51;12.00;99.90
6252;DHT22;3159;52.414;9.784;2023-04-01T10:49:10;12.60;99.90
6252;DHT22;3159;52.414;9.784;2023-04-01T10:52:11;12.30;99.90
6252;DHT22;3159;52.414;9.784;2023-04-01T10:54:49;12.40;99.90
6252;DHT22;3159;52.414;9.784;2023-04-01T10:57:39;12.40;99.90
6252;DHT22;3159;52.414;9.784;2023-04-01T11:00:23;12.20;99.90
6252;DHT22;3159;52.414;9.784;2023-04-01T11:12:57;12.20;99.90
6252;DHT22;3159;52.414;9.784;2023-04-01T11:18:58;12.40;99.90
6252;DHT22;3159;52.414;9.784;2023-04-01T11:25:02;12.10;99.90
6252;DHT22;3159;52.414;9.784;2023-04-01T11:27:46;12.30;99.90
6252;DHT22;3159;52.414;9.784;2023-04-01T11:30:23;12.40;99.90
6252;DHT22;3159;52.414;9.784;2023-04-01T11:32:59;12.40;99.90
6252;DHT22;3159;52.414;9.784;2023-04-01T11:35:54;12.50;99.90
6252;DHT22;3159;52.414;9.784;2023-04-01T11:38:34;12.80;99.90
6252;DHT22;3159;52.414;9.784;2023-04-01T11:41:16;12.70;99.90
6252;DHT22;3159;52.414;9.784;2023-04-01T11:43:57;12.90;99.90
6252;DHT22;3159;52.414;9.784;2023-04-01T11:46:36;12.60;99.90
6252;DHT22;3159;52.414;9.784;2023-04-01T11:49:15;12.50;99.90
6252;DHT22;3159;52.414;9.784;2023-04-01T11:51:55;12.60;99.90
6252;DHT22;3159;52.414;9.784;2023-04-01T11:54:40;12.60;99.90
6252;DHT22;3159;52.414;9.784;2023-04-01T11:57:35;12.60;99.90
6252;DHT22;3159;52.414;9.784;2023-04-01T12:00:41;12.50;99.90
6252;DHT22;3159;52.414;9.784;2023-04-01T12:03:26;12.40;99.90
6252;DHT22;3159;52.414;9.784;2023-04-01T12:06:02;12.50;99.90
6252;DHT22;3159;52.414;9.784;2023-04-01T12:08:36;12.50;99.90
6252;DHT22;3159;52.414;9.784;2023-04-01T12:11:15;12.60;99.90
6252;DHT22;3159;52.414;9.784;2023-04-01T12:13:49;12.80;99.90
6252;DHT22;3159;52.414;9.784;2023-04-01T12:16:37;12.70;99.90
6252;DHT22;3159;52.414;9.784;2023-04-01T12:19:15;12.70;99.90
6252;DHT22;3159;52.414;9.784;2023-04-01T12:21:45;12.90;99.90
6252;DHT22;3159;52.414;9.784;2023-04-01T12:24:36;13.00;99.90
6252;DHT22;3159;52.414;9.784;2023-04-01T12:27:23;12.80;99.90
6252;DHT22;3159;52.414;9.784;2023-04-01T12:35:54;13.50;99.90
6252;DHT22;3159;52.414;9.784;2023-04-01T12:38:31;13.70;99.90
6252;DHT22;3159;52.414;9.784;2023-04-01T12:41:16;13.80;99.90
6252;DHT22;3159;52.414;9.784;2023-04-01T12:47:05;13.40;99.90
6252;DHT22;3159;52.414;9.784;2023-04-01T12:52:46;13.40;99.90
6252;DHT22;3159;52.414;9.784;2023-04-01T12:55:33;13.40;99.90
6252;DHT22;3159;52.414;9.784;2023-04-01T13:01:46;13.30;99.90
6252;DHT22;3159;52.414;9.784;2023-04-01T13:04:35;13.40;99.90
6252;DHT22;3159;52.414;9.784;2023-04-01T13:10:04;13.20;99.90
6252;DHT22;3159;52.414;9.784;2023-04-01T13:12:47;12.90;99.90
6252;DHT22;3159;52.414;9.784;2023-04-01T13:15:25;13.10;99.90
6252;DHT22;3159;52.414;9.784;2023-04-01T13:17:57;13.20;99.90
6252;DHT22;3159;52.414;9.784;2023-04-01T13:20:34;13.20;99.90
6252;DHT22;3159;52.414;9.784;2023-04-01T13:23:13;13.20;99.90
6252;DHT22;3159;52.414;9.784;2023-04-01T13:25:49;13.10;99.90
6252;DHT22;3159;52.414;9.784;2023-04-01T13:28:21;13.20;99.90
6252;DHT22;3159;52.414;9.784;2023-04-01T13:30:57;13.20;99.90
6252;DHT22;3159;52.414;9.784;2023-04-01T13:33:31;13.10;99.90
6252;DHT22;3159;52.414;9.784;2023-04-01T13:36:11;12.80;99.90
6252;DHT22;3159;52.414;9.784;2023-04-01T13:38:52;12.70;99.90
6252;DHT22;3159;52.414;9.784;2023-04-01T13:41:38;12.30;99.90
6252;DHT22;3159;52.414;9.784;2023-04-01T13:44:10;12.40;99.90
6252;DHT22;3159;52.414;9.784;2023-04-01T13:47:08;12.30;99.90
6252;DHT22;3159;52.414;9.784;2023-04-01T13:49:50;12.20;99.90
6252;DHT22;3159;52.414;9.784;2023-04-01T13:52:38;12.10;99.90
6252;DHT22;3159;52.414;9.784;2023-04-01T13:58:20;11.60;99.90
6252;DHT22;3159;52.414;9.784;2023-04-01T14:00:56;11.50;99.90
6252;DHT22;3159;52.414;9.784;2023-04-01T14:03:37;11.50;99.90
6252;DHT22;3159;52.414;9.784;2023-04-01T14:06:15;11.40;99.90
6252;DHT22;3159;52.414;9.784;2023-04-01T14:08:55;11.20;99.90
6252;DHT22;3159;52.414;9.784;2023-04-01T14:11:34;11.20;99.90
6252;DHT22;3159;52.414;9.784;2023-04-01T14:14:14;11.10;99.90
6252;DHT22;3159;52.414;9.784;2023-04-01T14:16:59;11.10;99.90
6252;DHT22;3159;52.414;9.784;2023-04-01T14:22:34;11.10;99.90
6252;DHT22;3159;52.414;9.784;2023-04-01T14:28:18;11.00;99.90
6252;DHT22;3159;52.414;9.784;2023-04-01T14:34:22;10.80;99.90
6252;DHT22;3159;52.414;9.784;2023-04-01T14:37:01;10.80;99.90
6252;DHT22;3159;52.414;9.784;2023-04-01T14:39:55;10.70;99.90
6252;DHT22;3159;52.414;9.784;2023-04-01T14:42:49;10.80;99.90
6252;DHT22;3159;52.414;9.784;2023-04-01T14:48:23;10.70;99.90
6252;DHT22;3159;52.414;9.784;2023-04-01T14:50:53;10.60;99.90
6252;DHT22;3159;52.414;9.784;2023-04-01T14:53:28;10.60;99.90
6252;DHT22;3159;52.414;9.784;2023-04-01T14:55:56;10.60;99.90
6252;DHT22;3159;52.414;9.784;2023-04-01T14:58:25;10.50;99.90
6252;DHT22;3159;52.414;9.784;2023-04-01T15:01:10;10.40;99.90
6252;DHT22;3159;52.414;9.784;2023-04-01T15:03:48;10.40;99.90
6252;DHT22;3159;52.414;9.784;2023-04-01T15:09:38;10.30;99.90
6252;DHT22;3159;52.414;9.784;2023-04-01T15:12:17;10.30;99.90
6252;DHT22;3159;52.414;9.784;2023-04-01T15:15:21;10.30;99.90
6252;DHT22;3159;52.414;9.784;2023-04-01T15:18:03;10.30;99.90
6252;DHT22;3159;52.414;9.784;2023-04-01T15:21:01;10.50;99.90
6252;DHT22;3159;52.414;9.784;2023-04-01T15:23:40;10.50;99.90
6252;DHT22;3159;52.414;9.784;2023-04-01T15:26:28;10.40;99.90
6252;DHT22;3159;52.414;9.784;2023-04-01T15:29:17;10.20;99.90
6252;DHT22;3159;52.414;9.784;2023-04-01T15:31:50;10.10;99.90
6252;DHT22;3159;52.414;9.784;2023-04-01T15:34:32;10.10;99.90
6252;DHT22;3159;52.414;9.784;2023-04-01T15:37:06;10.00;99.90
6252;DHT22;3159;52.414;9.784;2023-04-01T15:39:46;10.00;99.90
6252;DHT22;3159;52.414;9.784;2023-04-01T15:42:28;9.90;99.90
6252;DHT22;3159;52.414;9.784;2023-04-01T15:45:17;9.90;99.90
6252;DHT22;3159;52.414;9.784;2023-04-01T15:47:52;9.90;99.90
6252;DHT22;3159;52.414;9.784;2023-04-01T15:50:48;9.80;99.90
6252;DHT22;3159;52.414;9.784;2023-04-01T15:53:31;9.80;99.90
6252;DHT22;3159;52.414;9.784;2023-04-01T15:56:14;9.80;99.90
6252;DHT22;3159;52.414;9.784;2023-04-01T15:58:49;9.60;99.90
6252;DHT22;3159;52.414;9.784;2023-04-01T16:01:28;9.60;99.90
6252;DHT22;3159;52.414;9.784;2023-04-01T16:04:11;9.50;99.90
6252;DHT22;3159;52.414;9.784;2023-04-01T16:07:02;9.40;99.90
6252;DHT22;3159;52.414;9.784;2023-04-01T16:09:41;9.50;99.90
6252;DHT22;3159;52.414;9.784;2023-04-01T16:12:15;9.50;99.90
6252;DHT22;3159;52.414;9.784;2023-04-01T16:14:55;9.40;99.90
6252;DHT22;3159;52.414;9.784;2023-04-01T16:17:47;9.20;99.90
6252;DHT22;3159;52.414;9.784;2023-04-01T16:20:19;9.30;99.90
6252;DHT22;3159;52.414;9.784;2023-04-01T16:22:55;9.40;99.90
6252;DHT22;3159;52.414;9.784;2023-04-01T16:25:31;9.40;99.90
6252;DHT22;3159;52.414;9.784;2023-04-01T16:28:13;9.20;99.90
6252;DHT22;3159;52.414;9.784;2023-04-01T16:30:47;9.30;99.90
6252;DHT22;3159;52.414;9.784;2023-04-01T16:33:20;9.20;99.90
6252;DHT22;3159;52.414;9.784;2023-04-01T16:35:55;9.20;99.90
6252;DHT22;3159;52.414;9.784;2023-04-01T16:38:32;9.00;99.90
6252;DHT22;3159;52.414;9.784;2023-04-01T16:41:10;9.10;99.90
6252;DHT22;3159;52.414;9.784;2023-04-01T16:43:41;8.90;99.90
6252;DHT22;3159;52.414;9.784;2023-04-01T16:46:33;9.00;99.90
6252;DHT22;3159;52.414;9.784;2023-04-01T16:49:25;9.00;99.90
6252;DHT22;3159;52.414;9.784;2023-04-01T16:52:00;9.00;99.90
6252;DHT22;3159;52.414;9.784;2023-04-01T16:54:40;8.90;99.90
6252;DHT22;3159;52.414;9.784;2023-04-01T16:57:17;8.80;99.90
6252;DHT22;3159;52.414;9.784;2023-04-01T16:59:47;8.80;99.90
6252;DHT22;3159;52.414;9.784;2023-04-01T17:02:24;8.80;99.90
6252;DHT22;3159;52.414;9.784;2023-04-01T17:04:56;8.70;99.90
6252;DHT22;3159;52.414;9.784;2023-04-01T17:07:30;8.70;99.90
6252;DHT22;3159;52.414;9.784;2023-04-01T17:15:59;8.50;99.90
6252;DHT22;3159;52.414;9.784;2023-04-01T17:18:37;8.40;99.90
6252;DHT22;3159;52.414;9.784;2023-04-01T17:21:11;8.30;99.90
6252;DHT22;3159;52.414;9.784;2023-04-01T17:23:45;8.30;99.90
6252;DHT22;3159;52.414;9.784;2023-04-01T17:26:27;8.30;99.90
6252;DHT22;3159;52.414;9.784;2023-04-01T17:28:58;8.30;99.90
6252;DHT22;3159;52.414;9.784;2023-04-01T17:31:42;8.30;99.90
6252;DHT22;3159;52.414;9.784;2023-04-01T17:34:34;8.20;99.90
6252;DHT22;3159;52.414;9.784;2023-04-01T17:40:01;8.10;99.90
6252;DHT22;3159;52.414;9.784;2023-04-01T17:42:40;8.20;99.90
6252;DHT22;3159;52.414;9.784;2023-04-01T17:45:11;8.10;99.90
6252;DHT22;3159;52.414;9.784;2023-04-01T17:47:52;8.10;99.90
6252;DHT22;3159;52.414;9.784;2023-04-01T17:50:35;8.10;99.90
6252;DHT22;3159;52.414;9.784;2023-04-01T17:53:26;8.00;99.90
6252;DHT22;3159;52.414;9.784;2023-04-01T17:56:21;8.00;99.90
6252;DHT22;3159;52.414;9.784;2023-04-01T17:58:58;7.80;99.90
6252;DHT22;3159;52.414;9.784;2023-04-01T18:01:41;7.80;99.90
6252;DHT22;3159;52.414;9.784;2023-04-01T18:07:33;7.90;99.90
6252;DHT22;3159;52.414;9.784;2023-04-01T18:10:17;7.70;99.90
6252;DHT22;3159;52.414;9.784;2023-04-01T18:13:12;7.70;99.90
6252;DHT22;3159;52.414;9.784;2023-04-01T18:15:50;7.80;99.90
6252;DHT22;3159;52.414;9.784;2023-04-01T18:18:44;7.90;99.90
6252;DHT22;3159;52.414;9.784;2023-04-01T18:21:19;7.90;99.90
6252;DHT22;3159;52.414;9.784;2023-04-01T18:23:53;7.70;99.90
6252;DHT22;3159;52.414;9.784;2023-04-01T18:26:29;7.90;99.90
6252;DHT22;3159;52.414;9.784;2023-04-01T18:29:01;7.70;99.90
6252;DHT22;3159;52.414;9.784;2023-04-01T18:31:36;7.70;99.90
6252;DHT22;3159;52.414;9.784;2023-04-01T18:34:08;7.60;99.90
6252;DHT22;3159;52.414;9.784;2023-04-01T18:36:44;7.60;99.90
6252;DHT22;3159;52.414;9.784;2023-04-01T18:39:14;7.60;99.90
6252;DHT22;3159;52.414;9.784;2023-04-01T18:41:51;7.60;99.90
6252;DHT22;3159;52.414;9.784;2023-04-01T18:44:31;7.60;99.90
6252;DHT22;3159;52.414;9.784;2023-04-01T18:47:11;7.50;99.90
6252;DHT22;3159;52.414;9.784;2023-04-01T18:49:45;7.30;99.90